createdAt,value
2023-04-28T00:00:41.264Z,1.38
2023-04-28T00:03:09.711Z,1.40
2023-04-28T00:05:38.100Z,1.85
2023-04-28T00:08:06.723Z,1.60
2023-04-28T00:10:35.152Z,1.52
2023-04-28T00:13:03.562Z,1.27
2023-04-28T00:15:31.795Z,1.27
2023-04-28T00:18:00.223Z,1.20
2023-04-28T00:20:28.479Z,1.30
2023-04-28T00:22:56.786Z,1.20
2023-04-28T00:25:25.061Z,1.60
2023-04-28T00:27:53.326Z,1.40
2023-04-28T00:30:21.778Z,1.23
2023-04-28T00:32:50.176Z,1.40
2023-04-28T00:35:18.638Z,1.40
2023-04-28T00:37:46.849Z,1.30
2023-04-28T00:40:15.188Z,2.13
2023-04-28T00:42:43.449Z,1.52
2023-04-28T00:45:12.012Z,1.27
2023-04-28T00:47:41.964Z,1.50
2023-04-28T00:50:10.682Z,2.05
2023-04-28T00:52:39.864Z,1.73
2023-04-28T00:55:09.518Z,1.60
2023-04-28T00:57:37.757Z,1.98
2023-04-28T01:00:08.442Z,2.03
2023-04-28T01:02:39.981Z,1.55
2023-04-28T01:05:10.190Z,1.52
2023-04-28T01:07:39.185Z,1.60
2023-04-28T01:10:09.141Z,1.52
2023-04-28T01:12:37.565Z,1.55
2023-04-28T01:15:06.808Z,2.10
2023-04-28T01:17:35.861Z,2.40
2023-04-28T01:20:04.745Z,2.20
2023-04-28T01:22:33.320Z,2.33
2023-04-28T01:25:04.108Z,2.30
2023-04-28T01:27:32.456Z,1.92
2023-04-28T01:30:01.706Z,2.22
2023-04-28T01:32:30.176Z,2.42
2023-04-28T01:34:58.433Z,1.90
2023-04-28T01:37:26.652Z,2.35
2023-04-28T01:39:55.720Z,2.28
2023-04-28T01:42:23.961Z,2.05
2023-04-28T01:44:52.137Z,2.13
2023-04-28T01:47:20.720Z,2.25
2023-04-28T01:49:50.141Z,2.40
2023-04-28T01:52:19.967Z,2.28
2023-04-28T01:54:48.688Z,2.15
2023-04-28T01:57:18.019Z,2.20
2023-04-28T01:59:47.218Z,2.42
2023-04-28T02:02:15.948Z,2.45
2023-04-28T02:04:44.303Z,2.35
2023-04-28T02:07:12.829Z,2.63
2023-04-28T02:09:41.053Z,2.47
2023-04-28T02:12:09.292Z,2.50
2023-04-28T02:14:37.584Z,3.00
2023-04-28T02:17:06.199Z,2.72
2023-04-28T02:19:35.029Z,2.55
2023-04-28T02:22:03.285Z,2.50
2023-04-28T02:24:34.802Z,2.38
2023-04-28T02:27:04.000Z,2.30
2023-04-28T02:29:32.452Z,2.03
2023-04-28T02:32:00.785Z,2.70
2023-04-28T02:34:29.062Z,2.08
2023-04-28T02:36:57.284Z,2.50
2023-04-28T02:39:27.235Z,2.03
2023-04-28T02:41:58.097Z,3.43
2023-04-28T02:44:27.061Z,3.70
2023-04-28T02:46:55.537Z,3.65
2023-04-28T02:49:26.725Z,4.18
2023-04-28T02:51:54.971Z,3.30
2023-04-28T02:54:29.087Z,3.72
2023-04-28T02:56:59.239Z,3.67
2023-04-28T02:59:27.568Z,3.95
2023-04-28T03:01:55.950Z,3.95
2023-04-28T03:04:24.424Z,4.15
2023-04-28T03:06:52.922Z,4.18
2023-04-28T03:09:21.366Z,3.42
2023-04-28T03:11:49.599Z,3.97
2023-04-28T03:14:18.026Z,3.60
2023-04-28T03:16:46.513Z,3.85
2023-04-28T03:19:16.318Z,3.35
2023-04-28T03:21:44.570Z,2.72
2023-04-28T03:24:14.997Z,3.33
2023-04-28T03:26:43.593Z,3.10
2023-04-28T03:29:11.866Z,3.28
2023-04-28T03:31:40.210Z,3.17
2023-04-28T03:34:08.966Z,3.75
2023-04-28T03:36:37.706Z,3.58
2023-04-28T03:39:13.672Z,3.35
2023-04-28T03:41:42.131Z,3.95
2023-04-28T03:44:39.555Z,3.15
2023-04-28T03:47:08.944Z,2.85
2023-04-28T03:49:38.295Z,3.60
2023-04-28T03:52:06.613Z,3.47
2023-04-28T03:54:35.820Z,4.70
2023-04-28T03:57:04.725Z,3.50
2023-04-28T03:59:34.749Z,3.20
2023-04-28T04:02:03.209Z,3.92
2023-04-28T04:04:32.020Z,4.03
2023-04-28T04:07:00.745Z,3.90
2023-04-28T04:09:30.001Z,4.63
2023-04-28T04:11:58.868Z,3.85
2023-04-28T04:14:27.140Z,5.70
2023-04-28T04:16:57.335Z,8.65
2023-04-28T04:19:26.738Z,14.52
2023-04-28T04:21:56.706Z,20.15
2023-04-28T04:24:25.180Z,31.25
2023-04-28T04:26:53.588Z,33.85
2023-04-28T04:29:35.484Z,18.65
2023-04-28T04:32:09.101Z,17.63
2023-04-28T04:34:37.523Z,14.82
2023-04-28T04:37:06.224Z,12.35
2023-04-28T04:39:36.743Z,12.98
2023-04-28T04:42:16.764Z,13.70
2023-04-28T04:45:14.761Z,11.20
2023-04-28T04:47:43.995Z,9.68
2023-04-28T04:50:13.212Z,8.05
2023-04-28T04:52:41.529Z,5.28
2023-04-28T04:55:11.408Z,5.20
2023-04-28T04:57:42.414Z,5.73
2023-04-28T05:00:33.966Z,4.95
2023-04-28T05:03:04.266Z,5.18
2023-04-28T05:05:33.184Z,5.15
2023-04-28T05:08:24.369Z,5.05
2023-04-28T05:10:52.716Z,5.35
2023-04-28T05:13:21.683Z,5.13
2023-04-28T05:15:56.315Z,5.50
2023-04-28T05:18:44.871Z,5.03
2023-04-28T05:21:13.637Z,4.72
2023-04-28T05:23:41.860Z,4.88
2023-04-28T05:26:10.419Z,4.47
2023-04-28T05:28:41.543Z,4.40
2023-04-28T05:31:10.763Z,4.50
2023-04-28T05:33:39.398Z,4.90
2023-04-28T05:36:08.515Z,4.70
2023-04-28T05:38:37.722Z,4.22
2023-04-28T05:41:07.164Z,4.95
2023-04-28T05:43:36.141Z,4.57
2023-04-28T05:46:09.760Z,4.93
2023-04-28T05:48:43.338Z,5.00
2023-04-28T05:51:12.703Z,4.95
2023-04-28T05:53:41.888Z,4.75
2023-04-28T05:56:10.219Z,4.38
2023-04-28T05:58:39.215Z,5.05
2023-04-28T06:01:07.607Z,4.63
2023-04-28T06:03:36.333Z,5.05
2023-04-28T06:06:07.850Z,5.00
2023-04-28T06:08:38.894Z,6.15
2023-04-28T06:11:07.516Z,6.03
2023-04-28T06:13:36.590Z,6.65
2023-04-28T06:16:05.638Z,5.68
2023-04-28T06:18:34.286Z,6.53
2023-04-28T06:21:04.056Z,5.97
2023-04-28T06:23:32.451Z,6.22
2023-04-28T06:26:01.191Z,5.78
2023-04-28T06:28:29.381Z,6.80
2023-04-28T06:30:57.737Z,5.90
2023-04-28T06:33:26.086Z,6.93
2023-04-28T06:35:54.593Z,6.00
2023-04-28T06:38:23.023Z,6.45
2023-04-28T06:40:51.642Z,6.35
2023-04-28T06:43:20.724Z,6.45
2023-04-28T06:46:01.826Z,5.78
2023-04-28T06:48:30.299Z,5.82
2023-04-28T06:50:58.551Z,6.00
2023-04-28T06:53:29.326Z,6.30
2023-04-28T06:55:57.675Z,6.13
2023-04-28T06:58:26.010Z,6.57
2023-04-28T07:00:54.395Z,7.13
2023-04-28T07:03:22.696Z,6.32
2023-04-28T07:05:51.212Z,6.35
2023-04-28T07:08:19.465Z,6.93
2023-04-28T07:10:47.741Z,7.13
2023-04-28T07:13:16.140Z,7.63
2023-04-28T07:15:44.392Z,6.43
2023-04-28T07:18:12.838Z,6.88
2023-04-28T07:20:41.586Z,5.80
2023-04-28T07:23:10.176Z,6.72
2023-04-28T07:25:39.818Z,5.82
2023-04-28T07:28:08.961Z,5.32
2023-04-28T07:30:37.260Z,5.35
2023-04-28T07:33:05.937Z,5.35
2023-04-28T07:35:34.388Z,4.28
2023-04-28T07:38:03.989Z,4.32
2023-04-28T07:40:32.326Z,3.65
2023-04-28T07:43:00.582Z,3.78
2023-04-28T07:45:28.769Z,5.07
2023-04-28T07:47:56.992Z,2.58
2023-04-28T07:50:25.445Z,3.55
2023-04-28T07:52:53.861Z,2.83
2023-04-28T07:55:22.132Z,2.65
2023-04-28T07:57:50.598Z,2.55
2023-04-28T08:00:19.488Z,2.63
2023-04-28T08:02:48.143Z,2.60
2023-04-28T08:05:17.282Z,2.28
2023-04-28T08:07:45.676Z,2.40
2023-04-28T08:10:14.006Z,2.67
2023-04-28T08:12:42.359Z,2.45
2023-04-28T08:15:11.084Z,2.88
2023-04-28T08:17:39.472Z,3.40
2023-04-28T08:20:08.446Z,3.53
2023-04-28T08:22:36.721Z,3.33
2023-04-28T08:25:05.444Z,3.05
2023-04-28T08:27:34.349Z,3.33
2023-04-28T08:30:02.645Z,3.00
2023-04-28T08:32:30.942Z,3.47
2023-04-28T08:34:59.228Z,2.95
2023-04-28T08:37:30.968Z,2.83
2023-04-28T08:40:09.836Z,3.13
2023-04-28T08:42:39.845Z,3.80
2023-04-28T08:45:12.707Z,4.32
2023-04-28T08:47:45.990Z,4.53
2023-04-28T08:50:15.933Z,4.05
2023-04-28T08:52:44.134Z,4.97
2023-04-28T08:55:13.719Z,5.20
2023-04-28T08:57:43.686Z,4.93
2023-04-28T09:00:12.744Z,6.05
2023-04-28T09:02:44.510Z,5.70
2023-04-28T09:05:15.072Z,5.68
2023-04-28T09:08:03.988Z,5.57
2023-04-28T09:10:32.425Z,5.63
2023-04-28T09:13:00.657Z,6.30
2023-04-28T09:15:33.202Z,6.70
2023-04-28T09:18:04.172Z,5.97
2023-04-28T09:20:34.525Z,5.68
2023-04-28T09:23:19.200Z,6.35
2023-04-28T09:26:00.560Z,6.28
2023-04-28T09:28:28.853Z,7.18
2023-04-28T09:30:57.487Z,6.90
2023-04-28T09:33:26.164Z,6.97
2023-04-28T09:35:54.666Z,6.90
2023-04-28T09:38:23.625Z,6.45
2023-04-28T09:41:00.704Z,6.25
2023-04-28T09:43:33.290Z,3.78
2023-04-28T09:46:03.805Z,4.57
2023-04-28T09:48:32.989Z,4.00
2023-04-28T09:51:03.268Z,4.25
2023-04-28T09:53:32.182Z,4.13
2023-04-28T09:56:02.541Z,4.05
2023-04-28T09:58:33.017Z,4.13
2023-04-28T10:01:02.212Z,4.00
2023-04-28T10:03:31.512Z,3.63
2023-04-28T10:06:02.048Z,3.63
2023-04-28T10:08:30.392Z,3.42
2023-04-28T10:10:59.105Z,3.50
2023-04-28T10:13:27.702Z,3.38
2023-04-28T10:15:58.365Z,3.30
2023-04-28T10:18:27.023Z,3.90
2023-04-28T10:21:00.331Z,3.22
2023-04-28T10:26:14.590Z,3.08
2023-04-28T10:28:51.421Z,3.40
2023-04-28T10:31:22.149Z,3.25
2023-04-28T10:33:50.528Z,4.43
2023-04-28T10:36:51.059Z,3.63
2023-04-28T10:39:19.947Z,3.95
2023-04-28T10:41:49.292Z,3.45
2023-04-28T10:44:43.898Z,4.55
2023-04-28T10:47:12.606Z,3.90
2023-04-28T10:50:13.576Z,4.28
2023-04-28T10:52:49.226Z,4.07
2023-04-28T10:55:34.923Z,3.63
2023-04-28T10:58:27.338Z,3.13
2023-04-28T11:00:55.732Z,2.40
2023-04-28T11:03:49.523Z,2.67
2023-04-28T11:08:47.578Z,2.03
2023-04-28T11:11:20.786Z,1.63
2023-04-28T11:13:50.701Z,1.85
2023-04-28T11:16:24.912Z,2.22
2023-04-28T11:18:59.447Z,2.55
2023-04-28T11:21:28.498Z,2.63
2023-04-28T11:24:00.502Z,3.05
2023-04-28T11:26:29.257Z,3.08
2023-04-28T11:28:58.667Z,2.72
2023-04-28T11:31:27.359Z,2.40
2023-04-28T11:34:06.503Z,3.00
2023-04-28T11:36:39.273Z,3.08
2023-04-28T11:39:09.465Z,3.28
2023-04-28T11:41:39.909Z,3.15
2023-04-28T11:44:16.057Z,3.28
2023-04-28T11:46:55.836Z,3.97
2023-04-28T11:49:25.010Z,4.07
2023-04-28T11:51:53.619Z,4.03
2023-04-28T11:54:27.176Z,3.75
2023-04-28T11:56:57.575Z,3.67
2023-04-28T11:59:31.828Z,4.00
2023-04-28T12:02:07.762Z,3.42
2023-04-28T12:04:38.344Z,4.13
2023-04-28T12:07:10.675Z,4.47
2023-04-28T12:09:40.852Z,4.15
2023-04-28T12:12:11.977Z,4.20
2023-04-28T12:14:59.604Z,3.50
2023-04-28T12:17:37.946Z,4.30
2023-04-28T12:20:09.003Z,4.07
2023-04-28T12:22:48.623Z,4.32
2023-04-28T12:25:19.495Z,4.55
2023-04-28T12:28:07.889Z,4.30
2023-04-28T12:30:44.100Z,5.32
2023-04-28T12:33:29.152Z,5.53
2023-04-28T12:35:58.292Z,5.47
2023-04-28T12:38:28.415Z,6.03
2023-04-28T12:40:57.285Z,7.18
2023-04-28T12:43:27.224Z,7.25
2023-04-28T12:45:56.646Z,8.05
2023-04-28T12:48:25.307Z,6.72
2023-04-28T12:50:53.809Z,8.90
2023-04-28T12:53:22.045Z,8.18
2023-04-28T12:55:50.339Z,8.43
2023-04-28T12:58:18.665Z,7.63
2023-04-28T13:00:47.095Z,6.88
2023-04-28T13:03:15.863Z,7.35
2023-04-28T13:05:44.399Z,6.68
2023-04-28T13:08:14.136Z,6.43
2023-04-28T13:10:42.730Z,6.45
2023-04-28T13:13:11.035Z,6.85
2023-04-28T13:15:39.477Z,7.45
2023-04-28T13:18:08.123Z,6.78
2023-04-28T13:20:36.367Z,7.68
2023-04-28T13:23:04.618Z,8.13
2023-04-28T13:25:32.851Z,8.27
2023-04-28T13:28:01.205Z,8.35
2023-04-28T13:30:29.422Z,9.60
2023-04-28T13:32:57.893Z,8.50
2023-04-28T13:35:27.244Z,9.18
2023-04-28T13:38:02.094Z,8.63
2023-04-28T13:40:30.577Z,10.50
2023-04-28T13:42:58.863Z,9.63
2023-04-28T13:45:27.267Z,9.38
2023-04-28T13:47:55.850Z,8.95
2023-04-28T13:50:24.118Z,9.80
2023-04-28T13:52:52.757Z,10.13
2023-04-28T13:55:27.686Z,9.93
2023-04-28T13:57:57.017Z,9.30
2023-04-28T14:00:25.356Z,9.48
2023-04-28T14:02:53.946Z,9.25
2023-04-28T14:05:22.825Z,10.95
2023-04-28T14:07:51.918Z,9.70
2023-04-28T14:10:20.184Z,12.82
2023-04-28T14:12:49.075Z,9.95
2023-04-28T14:15:18.163Z,11.40
2023-04-28T14:17:46.615Z,10.30
2023-04-28T14:20:15.325Z,10.20
2023-04-28T14:22:44.288Z,11.13
2023-04-28T14:25:12.502Z,10.70
2023-04-28T14:27:41.061Z,10.80
2023-04-28T14:30:10.359Z,10.43
2023-04-28T14:32:40.055Z,11.77
2023-04-28T14:35:09.230Z,12.30
2023-04-28T14:37:37.927Z,13.90
2023-04-28T14:40:07.047Z,13.32
2023-04-28T14:42:37.305Z,13.70
2023-04-28T14:45:10.738Z,12.98
2023-04-28T14:47:40.463Z,14.02
2023-04-28T14:50:10.382Z,12.38
2023-04-28T14:52:39.688Z,14.23
2023-04-28T14:55:08.288Z,13.93
2023-04-28T14:57:40.379Z,14.23
2023-04-28T15:00:09.232Z,14.65
2023-04-28T15:02:37.995Z,14.05
2023-04-28T15:05:07.862Z,13.75
2023-04-28T15:07:36.522Z,14.43
2023-04-28T15:10:05.052Z,16.65
2023-04-28T15:12:34.452Z,16.58
2023-04-28T15:15:02.718Z,16.05
2023-04-28T15:17:30.992Z,14.52
2023-04-28T15:19:59.274Z,15.57
2023-04-28T15:22:27.475Z,15.93
2023-04-28T15:24:56.074Z,14.73
2023-04-28T15:27:24.461Z,15.48
2023-04-28T15:29:52.811Z,16.10
2023-04-28T15:32:21.608Z,17.20
2023-04-28T15:34:50.146Z,16.25
2023-04-28T15:37:37.581Z,16.85
2023-04-28T15:40:06.992Z,15.02
2023-04-28T15:42:35.373Z,14.10
2023-04-28T15:45:03.957Z,16.30
2023-04-28T15:47:33.123Z,15.32
2023-04-28T15:50:01.482Z,14.50
2023-04-28T15:52:31.012Z,15.63
2023-04-28T15:55:00.830Z,15.80
2023-04-28T15:57:29.855Z,15.52
2023-04-28T15:59:58.882Z,15.75
2023-04-28T16:02:27.558Z,15.27
2023-04-28T16:04:56.583Z,15.13
2023-04-28T16:07:28.325Z,14.90
2023-04-28T16:09:56.750Z,14.43
2023-04-28T16:12:28.585Z,13.85
2023-04-28T16:14:57.951Z,14.68
2023-04-28T16:17:26.390Z,15.10
2023-04-28T16:19:58.749Z,13.73
2023-04-28T16:22:29.796Z,13.85
2023-04-28T16:25:00.528Z,12.50
2023-04-28T16:27:31.450Z,14.45
2023-04-28T16:30:00.862Z,13.90
2023-04-28T16:32:29.675Z,12.98
2023-04-28T16:35:00.586Z,13.13
2023-04-28T16:37:29.102Z,13.30
2023-04-28T16:42:46.222Z,13.30
2023-04-28T16:45:14.800Z,13.68
2023-04-28T16:47:43.942Z,11.85
2023-04-28T16:50:14.834Z,13.30
2023-04-28T16:52:43.275Z,13.63
2023-04-28T16:55:11.908Z,13.25
2023-04-28T16:57:40.225Z,11.73
2023-04-28T17:00:09.399Z,12.18
2023-04-28T17:02:38.301Z,12.10
2023-04-28T17:05:07.383Z,12.48
2023-04-28T17:07:35.650Z,12.68
2023-04-28T17:10:04.059Z,13.68
2023-04-28T17:12:32.358Z,12.88
2023-04-28T17:15:00.713Z,13.25
2023-04-28T17:17:29.191Z,13.05
2023-04-28T17:19:59.923Z,12.60
2023-04-28T17:22:30.185Z,12.18
2023-04-28T17:24:58.423Z,12.45
2023-04-28T17:27:26.706Z,13.32
2023-04-28T17:29:55.286Z,13.32
2023-04-28T17:32:23.541Z,13.40
2023-04-28T17:34:52.209Z,13.65
2023-04-28T17:37:20.603Z,11.90
2023-04-28T17:39:51.130Z,11.57
2023-04-28T17:42:19.689Z,11.05
2023-04-28T17:44:47.912Z,11.45
2023-04-28T17:47:17.426Z,10.88
2023-04-28T17:49:45.947Z,10.45
2023-04-28T17:52:15.539Z,10.82
2023-04-28T17:54:43.850Z,9.95
2023-04-28T17:57:13.039Z,10.68
2023-04-28T17:59:42.676Z,10.80
2023-04-28T18:02:11.915Z,10.80
2023-04-28T18:04:40.305Z,9.95
2023-04-28T18:07:08.573Z,10.25
2023-04-28T18:09:36.915Z,10.77
2023-04-28T18:12:05.617Z,10.55
2023-04-28T18:14:34.045Z,9.73
2023-04-28T18:17:02.277Z,10.75
2023-04-28T18:19:30.694Z,12.43
2023-04-28T18:21:59.009Z,13.98
2023-04-28T18:24:27.447Z,12.82
2023-04-28T18:26:55.757Z,10.52
2023-04-28T18:29:24.090Z,12.10
2023-04-28T18:31:52.439Z,10.38
2023-04-28T18:34:20.806Z,10.00
2023-04-28T18:36:49.978Z,10.18
2023-04-28T18:39:18.539Z,9.98
2023-04-28T18:41:46.839Z,10.25
2023-04-28T18:44:15.140Z,10.05
2023-04-28T18:46:43.427Z,10.45
2023-04-28T18:49:12.781Z,10.35
2023-04-28T18:51:41.131Z,9.38
2023-04-28T18:54:09.567Z,10.07
2023-04-28T18:56:40.253Z,8.98
2023-04-28T18:59:09.002Z,10.30
2023-04-28T19:01:38.338Z,9.77
2023-04-28T19:04:06.892Z,10.70
2023-04-28T19:06:36.291Z,10.90
2023-04-28T19:09:04.820Z,9.75
2023-04-28T19:11:33.265Z,10.18
2023-04-28T19:14:01.591Z,10.20
2023-04-28T19:16:29.878Z,10.27
2023-04-28T19:18:58.316Z,9.52
2023-04-28T19:21:26.898Z,9.10
2023-04-28T19:23:55.244Z,9.13
2023-04-28T19:26:24.158Z,9.40
2023-04-28T19:28:53.382Z,9.82
2023-04-28T19:31:21.626Z,9.98
2023-04-28T19:33:49.943Z,9.38
2023-04-28T19:36:18.349Z,8.75
2023-04-28T19:38:46.880Z,9.73
2023-04-28T19:41:15.164Z,8.80
2023-04-28T19:43:43.922Z,9.13
2023-04-28T19:46:13.049Z,9.23
2023-04-28T19:48:41.698Z,8.40
2023-04-28T19:51:09.870Z,7.70
2023-04-28T19:53:40.622Z,7.15
2023-04-28T19:56:10.216Z,6.65
2023-04-28T19:58:38.544Z,6.47
2023-04-28T20:01:07.305Z,6.28
2023-04-28T20:03:36.373Z,6.47
2023-04-28T20:06:05.320Z,7.18
2023-04-28T20:08:33.675Z,7.13
2023-04-28T20:11:01.910Z,6.78
2023-04-28T20:13:30.349Z,7.00
2023-04-28T20:15:58.596Z,7.28
2023-04-28T20:18:26.796Z,7.68
2023-04-28T20:20:55.080Z,7.88
2023-04-28T20:23:23.540Z,8.52
2023-04-28T20:25:51.886Z,8.05
2023-04-28T20:28:20.274Z,8.27
2023-04-28T20:30:48.441Z,8.30
2023-04-28T20:33:17.817Z,8.27
2023-04-28T20:35:46.036Z,8.98
2023-04-28T20:38:14.622Z,8.73
2023-04-28T20:40:44.232Z,9.82
2023-04-28T20:43:15.324Z,8.88
2023-04-28T20:45:43.520Z,8.52
2023-04-28T20:48:11.905Z,8.10
2023-04-28T20:50:41.211Z,9.32
2023-04-28T20:53:09.780Z,8.85
2023-04-28T20:55:38.127Z,8.93
2023-04-28T20:58:07.473Z,8.50
2023-04-28T21:00:40.084Z,8.75
2023-04-28T21:03:15.088Z,8.93
2023-04-28T21:05:45.752Z,8.80
2023-04-28T21:08:14.060Z,9.00
2023-04-28T21:10:42.471Z,8.70
2023-04-28T21:13:10.717Z,8.38
2023-04-28T21:15:40.627Z,8.90
2023-04-28T21:18:08.903Z,9.05
2023-04-28T21:20:37.432Z,9.15
2023-04-28T21:23:07.518Z,8.00
2023-04-28T21:25:36.783Z,9.60
2023-04-28T21:28:05.237Z,8.50
2023-04-28T21:30:33.511Z,8.75
2023-04-28T21:33:02.094Z,9.77
2023-04-28T21:35:30.680Z,9.38
2023-04-28T21:37:59.035Z,10.20
2023-04-28T21:40:27.332Z,9.45
2023-04-28T21:42:55.717Z,10.07
2023-04-28T21:45:23.960Z,9.50
2023-04-28T21:47:52.212Z,9.50
2023-04-28T21:50:20.414Z,11.05
2023-04-28T21:52:48.644Z,10.38
2023-04-28T21:55:17.080Z,10.45
2023-04-28T21:57:45.758Z,9.43
2023-04-28T22:00:14.653Z,10.32
2023-04-28T22:02:43.768Z,9.27
2023-04-28T22:05:12.365Z,10.60
2023-04-28T22:07:40.787Z,10.30
2023-04-28T22:10:10.238Z,9.57
2023-04-28T22:12:38.688Z,10.70
2023-04-28T22:15:07.553Z,9.57
2023-04-28T22:17:35.899Z,11.43
2023-04-28T22:20:04.762Z,10.60
2023-04-28T22:22:33.658Z,10.18
2023-04-28T22:25:02.037Z,10.38
2023-04-28T22:27:30.594Z,10.30
2023-04-28T22:29:59.001Z,11.25
2023-04-28T22:32:27.629Z,10.00
2023-04-28T22:34:55.839Z,10.55
2023-04-28T22:37:24.033Z,11.30
2023-04-28T22:39:52.614Z,10.73
2023-04-28T22:42:21.179Z,10.85
2023-04-28T22:44:49.389Z,11.18
2023-04-28T22:47:18.062Z,11.60
2023-04-28T22:49:46.631Z,11.23
2023-04-28T22:52:14.919Z,12.88
2023-04-28T22:54:43.162Z,11.25
2023-04-28T22:57:11.623Z,10.93
2023-04-28T22:59:39.802Z,10.25
2023-04-28T23:02:09.054Z,11.15
2023-04-28T23:04:37.496Z,11.60
2023-04-28T23:07:07.108Z,10.68
2023-04-28T23:09:37.183Z,10.75
2023-04-28T23:12:06.172Z,11.38
2023-04-28T23:14:34.517Z,10.23
2023-04-28T23:17:02.868Z,11.13
2023-04-28T23:19:31.752Z,10.55
2023-04-28T23:21:59.950Z,11.88
2023-04-28T23:24:28.348Z,10.48
2023-04-28T23:26:56.743Z,10.20
2023-04-28T23:29:25.213Z,10.80
2023-04-28T23:31:54.979Z,10.38
2023-04-28T23:34:24.085Z,10.43
2023-04-28T23:36:52.580Z,10.90
2023-04-28T23:39:20.886Z,10.93
2023-04-28T23:41:49.162Z,11.13
2023-04-28T23:44:17.566Z,10.15
2023-04-28T23:46:45.759Z,9.77
2023-04-28T23:49:13.988Z,10.13
2023-04-28T23:51:42.528Z,10.18
2023-04-28T23:54:11.586Z,9.02
2023-04-28T23:56:39.869Z,10.27
2023-04-28T23:59:08.411Z,10.48
